sensor_id;sensor_type;location;lat;lon;timestamp;P1;durP1;ratioP1;P2;durP2;ratioP2
4424;SDS011;2225;53.568;13.266;2023-07-20T00:02:05;7.27;;;2.50;;
4424;SDS011;2225;53.568;13.266;2023-07-20T00:04:34;11.00;;;3.00;;
4424;SDS011;2225;53.568;13.266;2023-07-20T00:07:01;9.07;;;2.60;;
4424;SDS011;2225;53.568;13.266;2023-07-20T00:09:28;14.23;;;2.87;;
4424;SDS011;2225;53.568;13.266;2023-07-20T00:11:55;8.90;;;2.77;;
4424;SDS011;2225;53.568;13.266;2023-07-20T00:14:22;7.13;;;2.40;;
4424;SDS011;2225;53.568;13.266;2023-07-20T00:16:52;8.93;;;2.77;;
4424;SDS011;2225;53.568;13.266;2023-07-20T00:19:23;13.80;;;2.80;;
4424;SDS011;2225;53.568;13.266;2023-07-20T00:21:51;10.20;;;3.53;;
4424;SDS011;2225;53.568;13.266;2023-07-20T00:24:18;10.33;;;2.73;;
4424;SDS011;2225;53.568;13.266;2023-07-20T00:26:45;9.37;;;3.00;;
4424;SDS011;2225;53.568;13.266;2023-07-20T00:29:13;8.30;;;3.13;;
4424;SDS011;2225;53.568;13.266;2023-07-20T00:31:40;8.13;;;2.73;;
4424;SDS011;2225;53.568;13.266;2023-07-20T00:34:08;13.10;;;3.33;;
4424;SDS011;2225;53.568;13.266;2023-07-20T00:36:35;9.80;;;3.63;;
4424;SDS011;2225;53.568;13.266;2023-07-20T00:39:02;9.13;;;3.50;;
4424;SDS011;2225;53.568;13.266;2023-07-20T00:41:29;7.50;;;2.77;;
4424;SDS011;2225;53.568;13.266;2023-07-20T00:43:58;8.83;;;3.90;;
4424;SDS011;2225;53.568;13.266;2023-07-20T00:46:24;11.67;;;3.47;;
4424;SDS011;2225;53.568;13.266;2023-07-20T00:48:52;10.10;;;3.80;;
4424;SDS011;2225;53.568;13.266;2023-07-20T00:51:20;11.57;;;3.53;;
4424;SDS011;2225;53.568;13.266;2023-07-20T00:53:49;11.07;;;3.80;;
4424;SDS011;2225;53.568;13.266;2023-07-20T00:56:16;8.73;;;3.47;;
4424;SDS011;2225;53.568;13.266;2023-07-20T00:58:43;8.50;;;3.47;;
4424;SDS011;2225;53.568;13.266;2023-07-20T01:01:12;10.07;;;3.80;;
4424;SDS011;2225;53.568;13.266;2023-07-20T01:03:40;10.23;;;4.57;;
4424;SDS011;2225;53.568;13.266;2023-07-20T01:06:14;10.17;;;4.40;;
4424;SDS011;2225;53.568;13.266;2023-07-20T01:11:34;9.50;;;4.50;;
4424;SDS011;2225;53.568;13.266;2023-07-20T01:14:06;12.03;;;4.40;;
4424;SDS011;2225;53.568;13.266;2023-07-20T01:16:33;9.20;;;4.67;;
4424;SDS011;2225;53.568;13.266;2023-07-20T01:19:00;9.87;;;4.07;;
4424;SDS011;2225;53.568;13.266;2023-07-20T01:21:31;15.80;;;4.47;;
4424;SDS011;2225;53.568;13.266;2023-07-20T01:24:38;9.60;;;3.83;;
4424;SDS011;2225;53.568;13.266;2023-07-20T01:33:50;10.53;;;4.20;;
4424;SDS011;2225;53.568;13.266;2023-07-20T01:36:21;16.20;;;3.90;;
4424;SDS011;2225;53.568;13.266;2023-07-20T01:38:51;11.43;;;3.60;;
4424;SDS011;2225;53.568;13.266;2023-07-20T01:41:19;11.50;;;3.90;;
4424;SDS011;2225;53.568;13.266;2023-07-20T01:43:46;9.47;;;3.43;;
4424;SDS011;2225;53.568;13.266;2023-07-20T01:46:14;11.30;;;4.03;;
4424;SDS011;2225;53.568;13.266;2023-07-20T01:48:42;10.53;;;3.47;;
4424;SDS011;2225;53.568;13.266;2023-07-20T01:51:09;11.60;;;4.03;;
4424;SDS011;2225;53.568;13.266;2023-07-20T01:53:36;8.90;;;3.80;;
4424;SDS011;2225;53.568;13.266;2023-07-20T01:56:03;10.00;;;3.60;;
4424;SDS011;2225;53.568;13.266;2023-07-20T01:58:30;9.53;;;4.30;;
4424;SDS011;2225;53.568;13.266;2023-07-20T02:00:57;13.10;;;4.77;;
4424;SDS011;2225;53.568;13.266;2023-07-20T02:03:24;11.63;;;4.67;;
4424;SDS011;2225;53.568;13.266;2023-07-20T02:05:53;12.47;;;3.60;;
4424;SDS011;2225;53.568;13.266;2023-07-20T02:08:20;9.93;;;4.40;;
4424;SDS011;2225;53.568;13.266;2023-07-20T02:10:47;11.90;;;4.20;;
4424;SDS011;2225;53.568;13.266;2023-07-20T02:13:15;11.70;;;3.87;;
4424;SDS011;2225;53.568;13.266;2023-07-20T02:15:42;8.90;;;3.60;;
4424;SDS011;2225;53.568;13.266;2023-07-20T02:18:09;8.23;;;3.80;;
4424;SDS011;2225;53.568;13.266;2023-07-20T02:20:36;7.90;;;3.30;;
4424;SDS011;2225;53.568;13.266;2023-07-20T02:23:03;10.23;;;3.80;;
4424;SDS011;2225;53.568;13.266;2023-07-20T02:25:30;9.70;;;3.30;;
4424;SDS011;2225;53.568;13.266;2023-07-20T02:27:57;8.67;;;3.70;;
4424;SDS011;2225;53.568;13.266;2023-07-20T02:30:25;9.30;;;3.30;;
4424;SDS011;2225;53.568;13.266;2023-07-20T02:32:53;9.00;;;4.20;;
4424;SDS011;2225;53.568;13.266;2023-07-20T02:35:21;10.93;;;3.90;;
4424;SDS011;2225;53.568;13.266;2023-07-20T02:37:48;8.70;;;3.43;;
4424;SDS011;2225;53.568;13.266;2023-07-20T02:40:15;9.87;;;4.20;;
4424;SDS011;2225;53.568;13.266;2023-07-20T02:42:42;8.83;;;3.73;;
4424;SDS011;2225;53.568;13.266;2023-07-20T02:45:09;11.10;;;3.37;;
4424;SDS011;2225;53.568;13.266;2023-07-20T02:47:36;9.10;;;3.27;;
4424;SDS011;2225;53.568;13.266;2023-07-20T02:50:05;10.37;;;4.10;;
4424;SDS011;2225;53.568;13.266;2023-07-20T02:52:34;10.60;;;3.60;;
4424;SDS011;2225;53.568;13.266;2023-07-20T02:55:01;10.70;;;3.87;;
4424;SDS011;2225;53.568;13.266;2023-07-20T02:57:28;12.73;;;5.10;;
4424;SDS011;2225;53.568;13.266;2023-07-20T02:59:55;9.40;;;4.00;;
4424;SDS011;2225;53.568;13.266;2023-07-20T03:02:22;10.77;;;4.07;;
4424;SDS011;2225;53.568;13.266;2023-07-20T03:04:49;10.57;;;4.20;;
4424;SDS011;2225;53.568;13.266;2023-07-20T03:07:16;11.90;;;4.90;;
4424;SDS011;2225;53.568;13.266;2023-07-20T03:09:46;11.40;;;4.50;;
4424;SDS011;2225;53.568;13.266;2023-07-20T03:12:13;9.30;;;4.50;;
4424;SDS011;2225;53.568;13.266;2023-07-20T03:14:40;9.50;;;4.27;;
4424;SDS011;2225;53.568;13.266;2023-07-20T03:17:07;8.70;;;4.23;;
4424;SDS011;2225;53.568;13.266;2023-07-20T03:19:34;9.83;;;3.70;;
4424;SDS011;2225;53.568;13.266;2023-07-20T03:22:01;9.20;;;3.63;;
4424;SDS011;2225;53.568;13.266;2023-07-20T03:24:29;15.43;;;4.97;;
4424;SDS011;2225;53.568;13.266;2023-07-20T03:26:56;9.20;;;4.37;;
4424;SDS011;2225;53.568;13.266;2023-07-20T03:29:24;9.87;;;4.63;;
4424;SDS011;2225;53.568;13.266;2023-07-20T03:31:51;11.60;;;4.03;;
4424;SDS011;2225;53.568;13.266;2023-07-20T03:34:18;10.97;;;4.60;;
4424;SDS011;2225;53.568;13.266;2023-07-20T03:36:45;9.10;;;4.07;;
4424;SDS011;2225;53.568;13.266;2023-07-20T03:39:13;9.47;;;4.10;;
4424;SDS011;2225;53.568;13.266;2023-07-20T03:41:40;12.30;;;4.33;;
4424;SDS011;2225;53.568;13.266;2023-07-20T03:44:07;11.50;;;4.80;;
4424;SDS011;2225;53.568;13.266;2023-07-20T03:46:34;14.27;;;5.20;;
4424;SDS011;2225;53.568;13.266;2023-07-20T03:49:01;10.07;;;4.37;;
4424;SDS011;2225;53.568;13.266;2023-07-20T03:51:28;8.50;;;4.27;;
4424;SDS011;2225;53.568;13.266;2023-07-20T03:53:56;10.80;;;4.50;;
4424;SDS011;2225;53.568;13.266;2023-07-20T03:56:23;10.83;;;4.97;;
4424;SDS011;2225;53.568;13.266;2023-07-20T03:58:51;11.20;;;4.77;;
4424;SDS011;2225;53.568;13.266;2023-07-20T04:01:17;10.57;;;4.97;;
4424;SDS011;2225;53.568;13.266;2023-07-20T04:03:44;9.57;;;4.50;;
4424;SDS011;2225;53.568;13.266;2023-07-20T04:06:15;8.30;;;4.10;;
4424;SDS011;2225;53.568;13.266;2023-07-20T04:08:44;11.83;;;5.27;;
4424;SDS011;2225;53.568;13.266;2023-07-20T04:11:14;11.20;;;4.40;;
4424;SDS011;2225;53.568;13.266;2023-07-20T04:13:41;12.60;;;5.07;;
4424;SDS011;2225;53.568;13.266;2023-07-20T04:16:08;10.93;;;4.50;;
4424;SDS011;2225;53.568;13.266;2023-07-20T04:18:35;11.13;;;4.50;;
4424;SDS011;2225;53.568;13.266;2023-07-20T04:21:02;12.03;;;4.00;;
4424;SDS011;2225;53.568;13.266;2023-07-20T04:23:30;17.57;;;5.03;;
4424;SDS011;2225;53.568;13.266;2023-07-20T04:25:57;9.00;;;3.97;;
4424;SDS011;2225;53.568;13.266;2023-07-20T04:28:24;9.50;;;3.70;;
4424;SDS011;2225;53.568;13.266;2023-07-20T04:30:52;9.57;;;4.13;;
4424;SDS011;2225;53.568;13.266;2023-07-20T04:33:21;12.47;;;3.53;;
4424;SDS011;2225;53.568;13.266;2023-07-20T04:35:52;7.93;;;3.80;;
4424;SDS011;2225;53.568;13.266;2023-07-20T04:38:25;10.47;;;3.40;;
4424;SDS011;2225;53.568;13.266;2023-07-20T04:41:03;11.27;;;3.73;;
4424;SDS011;2225;53.568;13.266;2023-07-20T04:43:40;9.53;;;3.00;;
4424;SDS011;2225;53.568;13.266;2023-07-20T04:46:13;8.40;;;3.73;;
4424;SDS011;2225;53.568;13.266;2023-07-20T04:48:41;7.97;;;3.30;;
4424;SDS011;2225;53.568;13.266;2023-07-20T04:51:08;12.27;;;3.03;;
4424;SDS011;2225;53.568;13.266;2023-07-20T04:53:36;10.23;;;3.00;;
4424;SDS011;2225;53.568;13.266;2023-07-20T04:56:05;8.57;;;3.33;;
4424;SDS011;2225;53.568;13.266;2023-07-20T04:58:32;8.77;;;3.20;;
4424;SDS011;2225;53.568;13.266;2023-07-20T05:00:59;12.60;;;3.37;;
4424;SDS011;2225;53.568;13.266;2023-07-20T05:03:26;9.00;;;3.70;;
4424;SDS011;2225;53.568;13.266;2023-07-20T05:05:54;7.63;;;3.43;;
4424;SDS011;2225;53.568;13.266;2023-07-20T05:08:21;10.23;;;3.27;;
4424;SDS011;2225;53.568;13.266;2023-07-20T05:10:48;8.30;;;3.43;;
4424;SDS011;2225;53.568;13.266;2023-07-20T05:13:16;8.67;;;3.13;;
4424;SDS011;2225;53.568;13.266;2023-07-20T05:15:43;9.30;;;2.73;;
4424;SDS011;2225;53.568;13.266;2023-07-20T05:18:14;7.80;;;2.93;;
4424;SDS011;2225;53.568;13.266;2023-07-20T05:20:47;9.47;;;2.40;;
4424;SDS011;2225;53.568;13.266;2023-07-20T05:23:15;7.50;;;2.77;;
4424;SDS011;2225;53.568;13.266;2023-07-20T05:25:44;7.60;;;2.43;;
4424;SDS011;2225;53.568;13.266;2023-07-20T05:28:11;6.40;;;2.10;;
4424;SDS011;2225;53.568;13.266;2023-07-20T05:30:38;8.07;;;2.37;;
4424;SDS011;2225;53.568;13.266;2023-07-20T05:33:06;9.97;;;2.07;;
4424;SDS011;2225;53.568;13.266;2023-07-20T05:35:33;9.00;;;2.60;;
4424;SDS011;2225;53.568;13.266;2023-07-20T05:38:00;6.80;;;2.20;;
4424;SDS011;2225;53.568;13.266;2023-07-20T05:40:27;7.00;;;2.20;;
4424;SDS011;2225;53.568;13.266;2023-07-20T05:42:54;5.60;;;1.60;;
4424;SDS011;2225;53.568;13.266;2023-07-20T05:45:23;9.13;;;2.10;;
4424;SDS011;2225;53.568;13.266;2023-07-20T05:47:49;6.60;;;2.03;;
4424;SDS011;2225;53.568;13.266;2023-07-20T05:50:16;10.57;;;2.73;;
4424;SDS011;2225;53.568;13.266;2023-07-20T05:52:43;8.80;;;2.37;;
4424;SDS011;2225;53.568;13.266;2023-07-20T05:55:10;7.43;;;1.87;;
4424;SDS011;2225;53.568;13.266;2023-07-20T05:57:37;6.13;;;1.37;;
4424;SDS011;2225;53.568;13.266;2023-07-20T06:00:08;6.20;;;2.13;;
4424;SDS011;2225;53.568;13.266;2023-07-20T06:02:41;6.80;;;2.07;;
4424;SDS011;2225;53.568;13.266;2023-07-20T06:05:08;6.90;;;1.97;;
4424;SDS011;2225;53.568;13.266;2023-07-20T06:07:38;10.63;;;1.70;;
4424;SDS011;2225;53.568;13.266;2023-07-20T06:10:06;10.30;;;2.17;;
4424;SDS011;2225;53.568;13.266;2023-07-20T06:12:33;8.23;;;2.30;;
4424;SDS011;2225;53.568;13.266;2023-07-20T06:15:02;6.40;;;2.10;;
4424;SDS011;2225;53.568;13.266;2023-07-20T06:17:30;9.50;;;2.00;;
4424;SDS011;2225;53.568;13.266;2023-07-20T06:19:57;11.57;;;2.43;;
4424;SDS011;2225;53.568;13.266;2023-07-20T06:22:24;10.00;;;2.23;;
4424;SDS011;2225;53.568;13.266;2023-07-20T06:24:51;6.00;;;1.40;;
4424;SDS011;2225;53.568;13.266;2023-07-20T06:27:18;6.53;;;2.07;;
4424;SDS011;2225;53.568;13.266;2023-07-20T06:29:45;9.13;;;1.97;;
4424;SDS011;2225;53.568;13.266;2023-07-20T06:32:12;10.17;;;1.70;;
4424;SDS011;2225;53.568;13.266;2023-07-20T06:34:40;7.43;;;2.20;;
4424;SDS011;2225;53.568;13.266;2023-07-20T06:37:07;7.07;;;1.80;;
4424;SDS011;2225;53.568;13.266;2023-07-20T06:39:34;8.70;;;1.90;;
4424;SDS011;2225;53.568;13.266;2023-07-20T06:42:04;6.50;;;1.97;;
4424;SDS011;2225;53.568;13.266;2023-07-20T06:44:32;7.30;;;1.97;;
4424;SDS011;2225;53.568;13.266;2023-07-20T06:46:58;6.07;;;1.73;;
4424;SDS011;2225;53.568;13.266;2023-07-20T06:49:26;6.87;;;1.90;;
4424;SDS011;2225;53.568;13.266;2023-07-20T06:51:54;7.30;;;2.03;;
4424;SDS011;2225;53.568;13.266;2023-07-20T06:54:21;7.13;;;1.77;;
4424;SDS011;2225;53.568;13.266;2023-07-20T06:56:49;6.30;;;1.90;;
4424;SDS011;2225;53.568;13.266;2023-07-20T06:59:20;7.87;;;1.97;;
4424;SDS011;2225;53.568;13.266;2023-07-20T07:01:47;6.70;;;1.70;;
4424;SDS011;2225;53.568;13.266;2023-07-20T07:04:14;6.50;;;1.90;;
4424;SDS011;2225;53.568;13.266;2023-07-20T07:06:41;5.73;;;1.70;;
4424;SDS011;2225;53.568;13.266;2023-07-20T07:09:09;8.13;;;1.80;;
4424;SDS011;2225;53.568;13.266;2023-07-20T07:11:36;8.27;;;2.30;;
4424;SDS011;2225;53.568;13.266;2023-07-20T07:14:03;6.13;;;1.47;;
4424;SDS011;2225;53.568;13.266;2023-07-20T07:16:30;5.50;;;1.60;;
4424;SDS011;2225;53.568;13.266;2023-07-20T07:18:57;5.80;;;1.50;;
4424;SDS011;2225;53.568;13.266;2023-07-20T07:21:27;7.00;;;1.50;;
4424;SDS011;2225;53.568;13.266;2023-07-20T07:23:54;11.10;;;1.60;;
4424;SDS011;2225;53.568;13.266;2023-07-20T07:26:24;6.53;;;1.33;;
4424;SDS011;2225;53.568;13.266;2023-07-20T07:28:51;5.43;;;1.60;;
4424;SDS011;2225;53.568;13.266;2023-07-20T07:31:18;7.27;;;1.37;;
4424;SDS011;2225;53.568;13.266;2023-07-20T07:33:45;7.70;;;1.53;;
4424;SDS011;2225;53.568;13.266;2023-07-20T07:36:11;6.30;;;1.23;;
4424;SDS011;2225;53.568;13.266;2023-07-20T07:38:38;7.23;;;1.17;;
4424;SDS011;2225;53.568;13.266;2023-07-20T07:41:25;6.33;;;1.23;;
4424;SDS011;2225;53.568;13.266;2023-07-20T07:43:52;5.07;;;1.10;;
4424;SDS011;2225;53.568;13.266;2023-07-20T07:46:19;5.07;;;1.00;;
4424;SDS011;2225;53.568;13.266;2023-07-20T07:48:47;5.20;;;1.00;;
4424;SDS011;2225;53.568;13.266;2023-07-20T07:51:14;4.80;;;0.87;;
4424;SDS011;2225;53.568;13.266;2023-07-20T07:53:41;6.10;;;1.23;;
4424;SDS011;2225;53.568;13.266;2023-07-20T07:56:09;6.70;;;1.13;;
4424;SDS011;2225;53.568;13.266;2023-07-20T07:58:36;5.43;;;1.20;;
4424;SDS011;2225;53.568;13.266;2023-07-20T08:01:04;5.57;;;0.97;;
4424;SDS011;2225;53.568;13.266;2023-07-20T08:03:31;6.67;;;1.30;;
4424;SDS011;2225;53.568;13.266;2023-07-20T08:05:58;5.70;;;1.00;;
4424;SDS011;2225;53.568;13.266;2023-07-20T08:08:26;6.87;;;1.10;;
4424;SDS011;2225;53.568;13.266;2023-07-20T08:10:53;5.40;;;0.90;;
4424;SDS011;2225;53.568;13.266;2023-07-20T08:13:21;7.13;;;1.10;;
4424;SDS011;2225;53.568;13.266;2023-07-20T08:15:49;5.70;;;0.93;;
4424;SDS011;2225;53.568;13.266;2023-07-20T08:18:20;7.50;;;1.03;;
4424;SDS011;2225;53.568;13.266;2023-07-20T08:20:48;5.63;;;1.00;;
4424;SDS011;2225;53.568;13.266;2023-07-20T08:23:15;5.50;;;1.13;;
4424;SDS011;2225;53.568;13.266;2023-07-20T08:25:42;5.53;;;0.90;;
4424;SDS011;2225;53.568;13.266;2023-07-20T08:28:13;5.20;;;1.00;;
4424;SDS011;2225;53.568;13.266;2023-07-20T08:30:42;6.10;;;0.90;;
4424;SDS011;2225;53.568;13.266;2023-07-20T08:33:14;5.17;;;1.03;;
4424;SDS011;2225;53.568;13.266;2023-07-20T08:35:47;6.43;;;1.00;;
4424;SDS011;2225;53.568;13.266;2023-07-20T08:38:14;4.80;;;0.80;;
4424;SDS011;2225;53.568;13.266;2023-07-20T08:40:41;5.10;;;1.20;;
4424;SDS011;2225;53.568;13.266;2023-07-20T08:43:11;4.83;;;1.00;;
4424;SDS011;2225;53.568;13.266;2023-07-20T08:45:40;6.03;;;0.90;;
4424;SDS011;2225;53.568;13.266;2023-07-20T08:48:07;5.57;;;0.93;;
4424;SDS011;2225;53.568;13.266;2023-07-20T08:50:35;4.90;;;0.80;;
4424;SDS011;2225;53.568;13.266;2023-07-20T08:53:03;4.90;;;0.87;;
4424;SDS011;2225;53.568;13.266;2023-07-20T08:55:30;5.37;;;1.00;;
4424;SDS011;2225;53.568;13.266;2023-07-20T08:57:58;6.53;;;0.93;;
4424;SDS011;2225;53.568;13.266;2023-07-20T09:00:26;7.67;;;1.27;;
4424;SDS011;2225;53.568;13.266;2023-07-20T09:02:57;5.93;;;0.93;;
4424;SDS011;2225;53.568;13.266;2023-07-20T09:05:26;4.60;;;1.00;;
4424;SDS011;2225;53.568;13.266;2023-07-20T09:07:53;5.37;;;1.00;;
4424;SDS011;2225;53.568;13.266;2023-07-20T09:10:23;7.90;;;1.07;;
4424;SDS011;2225;53.568;13.266;2023-07-20T09:12:51;5.90;;;1.00;;
4424;SDS011;2225;53.568;13.266;2023-07-20T09:15:18;9.10;;;1.20;;
4424;SDS011;2225;53.568;13.266;2023-07-20T09:17:47;4.60;;;0.90;;
4424;SDS011;2225;53.568;13.266;2023-07-20T09:20:16;5.20;;;1.00;;
4424;SDS011;2225;53.568;13.266;2023-07-20T09:22:48;4.90;;;0.90;;
4424;SDS011;2225;53.568;13.266;2023-07-20T09:25:16;7.17;;;1.20;;
4424;SDS011;2225;53.568;13.266;2023-07-20T09:27:48;6.87;;;0.90;;
4424;SDS011;2225;53.568;13.266;2023-07-20T09:30:17;6.87;;;0.90;;
4424;SDS011;2225;53.568;13.266;2023-07-20T09:32:45;5.63;;;0.70;;
4424;SDS011;2225;53.568;13.266;2023-07-20T09:35:17;5.67;;;1.00;;
4424;SDS011;2225;53.568;13.266;2023-07-20T09:37:49;7.20;;;1.07;;
4424;SDS011;2225;53.568;13.266;2023-07-20T09:40:40;8.30;;;1.40;;
4424;SDS011;2225;53.568;13.266;2023-07-20T09:43:11;9.53;;;1.27;;
4424;SDS011;2225;53.568;13.266;2023-07-20T09:45:41;5.03;;;1.07;;
4424;SDS011;2225;53.568;13.266;2023-07-20T09:48:12;4.50;;;0.90;;
4424;SDS011;2225;53.568;13.266;2023-07-20T09:50:42;4.80;;;0.93;;
4424;SDS011;2225;53.568;13.266;2023-07-20T09:53:19;4.97;;;0.90;;
4424;SDS011;2225;53.568;13.266;2023-07-20T09:55:47;5.40;;;0.90;;
4424;SDS011;2225;53.568;13.266;2023-07-20T09:58:15;4.93;;;0.70;;
4424;SDS011;2225;53.568;13.266;2023-07-20T10:00:43;5.13;;;0.80;;
4424;SDS011;2225;53.568;13.266;2023-07-20T10:03:18;5.53;;;1.07;;
4424;SDS011;2225;53.568;13.266;2023-07-20T10:05:48;5.63;;;0.97;;
4424;SDS011;2225;53.568;13.266;2023-07-20T10:08:23;5.27;;;1.00;;
4424;SDS011;2225;53.568;13.266;2023-07-20T10:10:54;6.20;;;1.00;;
4424;SDS011;2225;53.568;13.266;2023-07-20T10:13:27;4.90;;;0.80;;
4424;SDS011;2225;53.568;13.266;2023-07-20T10:15:58;4.40;;;0.90;;
4424;SDS011;2225;53.568;13.266;2023-07-20T10:18:45;9.20;;;1.20;;
4424;SDS011;2225;53.568;13.266;2023-07-20T10:21:29;5.87;;;1.00;;
4424;SDS011;2225;53.568;13.266;2023-07-20T10:24:00;5.20;;;0.90;;
4424;SDS011;2225;53.568;13.266;2023-07-20T10:26:27;6.27;;;0.80;;
4424;SDS011;2225;53.568;13.266;2023-07-20T10:28:55;11.00;;;1.20;;
4424;SDS011;2225;53.568;13.266;2023-07-20T10:31:24;10.20;;;0.90;;
4424;SDS011;2225;53.568;13.266;2023-07-20T10:34:07;4.80;;;0.90;;
4424;SDS011;2225;53.568;13.266;2023-07-20T10:36:43;6.70;;;0.70;;
4424;SDS011;2225;53.568;13.266;2023-07-20T10:39:24;5.00;;;0.90;;
4424;SDS011;2225;53.568;13.266;2023-07-20T10:42:01;5.77;;;1.10;;
4424;SDS011;2225;53.568;13.266;2023-07-20T10:44:30;8.13;;;1.57;;
4424;SDS011;2225;53.568;13.266;2023-07-20T10:47:01;5.00;;;0.87;;
4424;SDS011;2225;53.568;13.266;2023-07-20T10:49:35;6.47;;;0.90;;
4424;SDS011;2225;53.568;13.266;2023-07-20T10:52:26;8.47;;;1.00;;
4424;SDS011;2225;53.568;13.266;2023-07-20T10:55:10;5.23;;;0.90;;
4424;SDS011;2225;53.568;13.266;2023-07-20T10:57:41;5.77;;;0.90;;
4424;SDS011;2225;53.568;13.266;2023-07-20T11:00:11;5.70;;;0.90;;
4424;SDS011;2225;53.568;13.266;2023-07-20T11:05:36;6.20;;;0.80;;
4424;SDS011;2225;53.568;13.266;2023-07-20T11:08:06;6.50;;;0.90;;
4424;SDS011;2225;53.568;13.266;2023-07-20T11:10:38;5.27;;;1.10;;
4424;SDS011;2225;53.568;13.266;2023-07-20T11:13:16;7.23;;;1.10;;
4424;SDS011;2225;53.568;13.266;2023-07-20T11:18:25;7.77;;;1.23;;
4424;SDS011;2225;53.568;13.266;2023-07-20T11:20:52;4.73;;;0.97;;
4424;SDS011;2225;53.568;13.266;2023-07-20T11:23:20;8.07;;;1.20;;
4424;SDS011;2225;53.568;13.266;2023-07-20T11:25:47;4.90;;;1.00;;
4424;SDS011;2225;53.568;13.266;2023-07-20T11:28:15;7.00;;;1.17;;
4424;SDS011;2225;53.568;13.266;2023-07-20T11:30:42;4.87;;;0.70;;
4424;SDS011;2225;53.568;13.266;2023-07-20T11:33:10;4.30;;;0.77;;
4424;SDS011;2225;53.568;13.266;2023-07-20T11:35:46;5.13;;;1.00;;
4424;SDS011;2225;53.568;13.266;2023-07-20T11:38:17;5.00;;;0.83;;
4424;SDS011;2225;53.568;13.266;2023-07-20T11:40:44;7.33;;;0.90;;
4424;SDS011;2225;53.568;13.266;2023-07-20T11:43:12;6.03;;;1.00;;
4424;SDS011;2225;53.568;13.266;2023-07-20T11:45:43;7.13;;;0.90;;
4424;SDS011;2225;53.568;13.266;2023-07-20T11:48:15;7.13;;;1.10;;
4424;SDS011;2225;53.568;13.266;2023-07-20T11:50:43;6.40;;;1.10;;
4424;SDS011;2225;53.568;13.266;2023-07-20T11:53:10;5.23;;;0.97;;
4424;SDS011;2225;53.568;13.266;2023-07-20T11:55:38;6.50;;;1.20;;
4424;SDS011;2225;53.568;13.266;2023-07-20T11:58:06;4.90;;;0.90;;
4424;SDS011;2225;53.568;13.266;2023-07-20T12:00:36;10.03;;;1.47;;
4424;SDS011;2225;53.568;13.266;2023-07-20T12:03:05;7.00;;;1.10;;
4424;SDS011;2225;53.568;13.266;2023-07-20T12:05:34;6.20;;;1.50;;
4424;SDS011;2225;53.568;13.266;2023-07-20T12:08:21;7.37;;;1.13;;
4424;SDS011;2225;53.568;13.266;2023-07-20T12:10:48;5.37;;;1.33;;
4424;SDS011;2225;53.568;13.266;2023-07-20T12:13:16;5.30;;;1.13;;
4424;SDS011;2225;53.568;13.266;2023-07-20T12:15:43;6.63;;;1.20;;
4424;SDS011;2225;53.568;13.266;2023-07-20T12:18:10;6.90;;;1.37;;
4424;SDS011;2225;53.568;13.266;2023-07-20T12:20:37;9.00;;;1.33;;
4424;SDS011;2225;53.568;13.266;2023-07-20T12:23:09;5.43;;;1.30;;
4424;SDS011;2225;53.568;13.266;2023-07-20T12:25:41;5.30;;;1.30;;
4424;SDS011;2225;53.568;13.266;2023-07-20T12:28:11;6.17;;;1.30;;
4424;SDS011;2225;53.568;13.266;2023-07-20T12:30:40;5.60;;;1.37;;
4424;SDS011;2225;53.568;13.266;2023-07-20T12:33:08;6.77;;;1.33;;
4424;SDS011;2225;53.568;13.266;2023-07-20T12:35:35;7.00;;;1.40;;
4424;SDS011;2225;53.568;13.266;2023-07-20T12:38:03;5.00;;;1.30;;
4424;SDS011;2225;53.568;13.266;2023-07-20T12:40:30;5.93;;;1.20;;
4424;SDS011;2225;53.568;13.266;2023-07-20T12:42:57;9.30;;;1.50;;
4424;SDS011;2225;53.568;13.266;2023-07-20T12:45:24;5.60;;;1.50;;
4424;SDS011;2225;53.568;13.266;2023-07-20T12:47:51;6.90;;;1.30;;
4424;SDS011;2225;53.568;13.266;2023-07-20T12:50:18;6.90;;;1.30;;
4424;SDS011;2225;53.568;13.266;2023-07-20T12:52:46;8.03;;;1.30;;
4424;SDS011;2225;53.568;13.266;2023-07-20T12:55:13;6.53;;;1.33;;
4424;SDS011;2225;53.568;13.266;2023-07-20T12:57:40;5.20;;;1.40;;
4424;SDS011;2225;53.568;13.266;2023-07-20T13:00:09;5.10;;;1.30;;
4424;SDS011;2225;53.568;13.266;2023-07-20T13:02:38;5.47;;;1.30;;
4424;SDS011;2225;53.568;13.266;2023-07-20T13:05:05;6.77;;;1.43;;
4424;SDS011;2225;53.568;13.266;2023-07-20T13:07:33;5.90;;;1.50;;
4424;SDS011;2225;53.568;13.266;2023-07-20T13:10:05;5.10;;;1.50;;
4424;SDS011;2225;53.568;13.266;2023-07-20T13:12:33;7.67;;;1.90;;
4424;SDS011;2225;53.568;13.266;2023-07-20T13:15:04;6.87;;;1.80;;
4424;SDS011;2225;53.568;13.266;2023-07-20T13:17:34;9.20;;;2.27;;
4424;SDS011;2225;53.568;13.266;2023-07-20T13:20:02;7.77;;;2.30;;
4424;SDS011;2225;53.568;13.266;2023-07-20T13:22:34;7.17;;;1.97;;
4424;SDS011;2225;53.568;13.266;2023-07-20T13:25:01;8.30;;;2.10;;
4424;SDS011;2225;53.568;13.266;2023-07-20T13:27:28;22.10;;;2.30;;
4424;SDS011;2225;53.568;13.266;2023-07-20T13:29:58;9.57;;;1.83;;
4424;SDS011;2225;53.568;13.266;2023-07-20T13:32:29;7.10;;;2.17;;
4424;SDS011;2225;53.568;13.266;2023-07-20T13:34:59;7.43;;;2.00;;
4424;SDS011;2225;53.568;13.266;2023-07-20T13:37:27;5.83;;;1.80;;
4424;SDS011;2225;53.568;13.266;2023-07-20T13:39:54;7.93;;;2.30;;
4424;SDS011;2225;53.568;13.266;2023-07-20T13:42:23;12.27;;;1.53;;
4424;SDS011;2225;53.568;13.266;2023-07-20T13:44:50;9.33;;;2.00;;
4424;SDS011;2225;53.568;13.266;2023-07-20T13:47:17;5.57;;;1.83;;
4424;SDS011;2225;53.568;13.266;2023-07-20T13:49:47;7.80;;;2.17;;
4424;SDS011;2225;53.568;13.266;2023-07-20T13:52:15;7.40;;;1.90;;
4424;SDS011;2225;53.568;13.266;2023-07-20T13:54:45;6.20;;;1.80;;
4424;SDS011;2225;53.568;13.266;2023-07-20T13:57:16;5.97;;;1.73;;
4424;SDS011;2225;53.568;13.266;2023-07-20T13:59:44;6.97;;;1.63;;
4424;SDS011;2225;53.568;13.266;2023-07-20T14:02:13;7.03;;;1.63;;
4424;SDS011;2225;53.568;13.266;2023-07-20T14:04:44;6.90;;;1.70;;
4424;SDS011;2225;53.568;13.266;2023-07-20T14:07:11;4.80;;;1.00;;
4424;SDS011;2225;53.568;13.266;2023-07-20T14:09:38;4.73;;;1.10;;
4424;SDS011;2225;53.568;13.266;2023-07-20T14:12:25;5.77;;;1.40;;
4424;SDS011;2225;53.568;13.266;2023-07-20T14:14:53;6.20;;;1.57;;
4424;SDS011;2225;53.568;13.266;2023-07-20T14:17:21;6.77;;;1.50;;
4424;SDS011;2225;53.568;13.266;2023-07-20T14:19:48;5.07;;;1.33;;
4424;SDS011;2225;53.568;13.266;2023-07-20T14:22:17;7.40;;;1.63;;
4424;SDS011;2225;53.568;13.266;2023-07-20T14:24:45;6.53;;;1.33;;
4424;SDS011;2225;53.568;13.266;2023-07-20T14:27:12;8.10;;;1.77;;
4424;SDS011;2225;53.568;13.266;2023-07-20T14:29:39;9.17;;;1.50;;
4424;SDS011;2225;53.568;13.266;2023-07-20T14:32:06;12.70;;;1.40;;
4424;SDS011;2225;53.568;13.266;2023-07-20T14:34:33;5.30;;;1.30;;
4424;SDS011;2225;53.568;13.266;2023-07-20T14:37:04;5.60;;;1.40;;
4424;SDS011;2225;53.568;13.266;2023-07-20T14:39:31;6.93;;;1.43;;
4424;SDS011;2225;53.568;13.266;2023-07-20T14:41:58;5.50;;;1.20;;
4424;SDS011;2225;53.568;13.266;2023-07-20T14:44:25;5.50;;;1.47;;
4424;SDS011;2225;53.568;13.266;2023-07-20T14:46:52;8.00;;;1.90;;
4424;SDS011;2225;53.568;13.266;2023-07-20T14:49:39;6.37;;;1.70;;
4424;SDS011;2225;53.568;13.266;2023-07-20T14:52:06;8.07;;;1.50;;
4424;SDS011;2225;53.568;13.266;2023-07-20T14:54:36;7.40;;;1.50;;
4424;SDS011;2225;53.568;13.266;2023-07-20T14:57:03;5.93;;;1.30;;
4424;SDS011;2225;53.568;13.266;2023-07-20T14:59:31;6.60;;;1.40;;
4424;SDS011;2225;53.568;13.266;2023-07-20T15:01:58;7.60;;;1.80;;
4424;SDS011;2225;53.568;13.266;2023-07-20T15:04:24;7.77;;;1.47;;
4424;SDS011;2225;53.568;13.266;2023-07-20T15:06:52;7.83;;;1.77;;
4424;SDS011;2225;53.568;13.266;2023-07-20T15:09:21;12.77;;;1.60;;
4424;SDS011;2225;53.568;13.266;2023-07-20T15:11:48;6.70;;;1.53;;
4424;SDS011;2225;53.568;13.266;2023-07-20T15:14:15;9.33;;;1.80;;
4424;SDS011;2225;53.568;13.266;2023-07-20T15:16:41;6.60;;;1.30;;
4424;SDS011;2225;53.568;13.266;2023-07-20T15:19:09;6.60;;;1.27;;
4424;SDS011;2225;53.568;13.266;2023-07-20T15:21:39;6.33;;;1.30;;
4424;SDS011;2225;53.568;13.266;2023-07-20T15:24:06;5.87;;;1.23;;